ADDS METAR Data INFO
IDs: Format: Raw Decoded Include TAF

Data at: 1213 UTC 24 Mar 2017

KGGG 241153Z 18010KT 10SM BKN027 BKN037 19/17 A3001 RMK AO2 SLP157 T01940167 10206 20183 53024
KGGG 241053Z 23007KT 10SM BKN025 OVC034 21/16 A3000 RMK AO2 PK WND 17031/0955 PRESRR SLP153 T02060161
KGGG 240953Z AUTO 17019G26KT 10SM BKN026 BKN031 20/16 A2992 RMK AO2 PK WND 18030/0905 SLP125 T02000161
KGGG 240917Z AUTO 17019G28KT 10SM BKN028 20/16 A2992 RMK AO2 PK WND 18030/0905 T02000161

KGGG 241145Z 2412/2512 17013G20KT P6SM BKN025 OVC035
  FM241500 18017G26KT P6SM BKN035 OVC045
  FM241900 18018G28KT P6SM VCTS BKN040 OVC050CB
  FM242100 VRB20G30KT 3SM TSRA OVC045CB
  FM250200 21013G20KT P6SM SCT040 BKN250


KTYR 241153Z 19011KT 10SM BKN032 BKN044 20/16 A2999 RMK AO2 SLP150 T02000156 10206 20183 53033
KTYR 241053Z AUTO 19012KT 10SM SCT029 BKN037 OVC048 21/16 A2998 RMK AO2 PK WND 18026/0955 SLP143 T02060156
KTYR 241037Z AUTO 19015G21KT 10SM SCT025 BKN031 OVC042 21/16 A2997 RMK AO2 PK WND 18026/0955 T02060156
KTYR 240953Z AUTO 18018G28KT 10SM BKN027 OVC032 20/15 A2990 RMK AO2 PK WND 17028/0944 SLP117 T02000150

KTYR 241145Z 2412/2512 19014G22KT P6SM SCT030 BKN040 OVC050
  TEMPO 2412/2415 19015G25KT BKN030 OVC040
  FM241500 19017G26KT P6SM BKN035 OVC045
  FM241800 19019G28KT P6SM VCTS BKN040 OVC050CB
  FM242000 VRB20G30KT 3SM TSRA OVC045CB
  FM250100 22014G22KT P6SM SCT040 BKN250



Page loaded:  12:13 UTC  |   05:13 AM Pacific  |   06:13 AM Mountain  |   07:13 AM Central  |   08:13 AM Eastern

 

ADVISORIES

FORECASTS

FORECASTS

OBSERVATIONS

USER TOOLS

ABOUT US